sensor_id;sensor_type;location;lat;lon;timestamp;P1;durP1;ratioP1;P2;durP2;ratioP2
72974;SDS011;61166;54.228;37.632;2023-04-15T00:02:23;5.45;;;2.22;;
72974;SDS011;61166;54.228;37.632;2023-04-15T00:04:50;4.65;;;1.33;;
72974;SDS011;61166;54.228;37.632;2023-04-15T00:07:16;4.60;;;2.15;;
72974;SDS011;61166;54.228;37.632;2023-04-15T00:09:43;4.53;;;2.37;;
72974;SDS011;61166;54.228;37.632;2023-04-15T00:12:10;6.35;;;2.40;;
72974;SDS011;61166;54.228;37.632;2023-04-15T00:14:36;7.28;;;1.70;;
72974;SDS011;61166;54.228;37.632;2023-04-15T00:17:03;3.75;;;1.05;;
72974;SDS011;61166;54.228;37.632;2023-04-15T00:19:30;4.25;;;2.03;;
72974;SDS011;61166;54.228;37.632;2023-04-15T00:21:57;4.43;;;2.03;;
72974;SDS011;61166;54.228;37.632;2023-04-15T00:24:23;4.18;;;1.85;;
72974;SDS011;61166;54.228;37.632;2023-04-15T00:26:49;4.78;;;2.30;;
72974;SDS011;61166;54.228;37.632;2023-04-15T00:29:16;5.13;;;2.25;;
72974;SDS011;61166;54.228;37.632;2023-04-15T00:31:42;5.20;;;1.40;;
72974;SDS011;61166;54.228;37.632;2023-04-15T00:34:08;7.20;;;2.10;;
72974;SDS011;61166;54.228;37.632;2023-04-15T00:36:35;4.53;;;1.58;;
72974;SDS011;61166;54.228;37.632;2023-04-15T00:39:01;4.60;;;2.10;;
72974;SDS011;61166;54.228;37.632;2023-04-15T00:41:28;4.70;;;2.00;;
72974;SDS011;61166;54.228;37.632;2023-04-15T00:43:54;6.85;;;2.10;;
72974;SDS011;61166;54.228;37.632;2023-04-15T00:46:20;6.43;;;2.40;;
72974;SDS011;61166;54.228;37.632;2023-04-15T00:48:47;5.50;;;1.95;;
72974;SDS011;61166;54.228;37.632;2023-04-15T00:51:14;7.45;;;1.95;;
72974;SDS011;61166;54.228;37.632;2023-04-15T00:53:41;6.43;;;2.20;;
72974;SDS011;61166;54.228;37.632;2023-04-15T00:56:07;6.93;;;1.80;;
72974;SDS011;61166;54.228;37.632;2023-04-15T00:58:34;5.53;;;2.07;;
72974;SDS011;61166;54.228;37.632;2023-04-15T01:01:00;6.35;;;2.25;;
72974;SDS011;61166;54.228;37.632;2023-04-15T01:03:26;4.72;;;2.00;;
72974;SDS011;61166;54.228;37.632;2023-04-15T01:05:54;6.20;;;2.00;;
72974;SDS011;61166;54.228;37.632;2023-04-15T01:08:21;5.22;;;1.98;;
72974;SDS011;61166;54.228;37.632;2023-04-15T01:10:47;4.70;;;2.20;;
72974;SDS011;61166;54.228;37.632;2023-04-15T01:13:14;5.13;;;2.17;;
72974;SDS011;61166;54.228;37.632;2023-04-15T01:15:40;4.78;;;1.80;;
72974;SDS011;61166;54.228;37.632;2023-04-15T01:18:07;5.22;;;1.92;;
72974;SDS011;61166;54.228;37.632;2023-04-15T01:20:34;5.43;;;2.00;;
72974;SDS011;61166;54.228;37.632;2023-04-15T01:23:00;5.47;;;2.20;;
72974;SDS011;61166;54.228;37.632;2023-04-15T01:25:30;5.72;;;2.35;;
72974;SDS011;61166;54.228;37.632;2023-04-15T01:27:57;5.53;;;1.73;;
72974;SDS011;61166;54.228;37.632;2023-04-15T01:30:23;5.60;;;2.10;;
72974;SDS011;61166;54.228;37.632;2023-04-15T01:32:50;6.35;;;1.88;;
72974;SDS011;61166;54.228;37.632;2023-04-15T01:35:35;4.33;;;1.90;;
72974;SDS011;61166;54.228;37.632;2023-04-15T01:38:05;3.72;;;1.40;;
72974;SDS011;61166;54.228;37.632;2023-04-15T01:40:32;4.30;;;1.80;;
72974;SDS011;61166;54.228;37.632;2023-04-15T01:43:00;4.93;;;1.13;;
72974;SDS011;61166;54.228;37.632;2023-04-15T01:45:28;5.25;;;1.77;;
72974;SDS011;61166;54.228;37.632;2023-04-15T01:47:55;6.60;;;2.47;;
72974;SDS011;61166;54.228;37.632;2023-04-15T01:50:23;8.05;;;2.38;;
72974;SDS011;61166;54.228;37.632;2023-04-15T01:52:51;4.88;;;1.95;;
72974;SDS011;61166;54.228;37.632;2023-04-15T01:55:18;9.73;;;2.08;;
72974;SDS011;61166;54.228;37.632;2023-04-15T01:57:46;6.38;;;2.10;;
72974;SDS011;61166;54.228;37.632;2023-04-15T02:00:14;5.17;;;2.07;;
72974;SDS011;61166;54.228;37.632;2023-04-15T02:02:41;4.00;;;1.40;;
72974;SDS011;61166;54.228;37.632;2023-04-15T02:05:09;3.65;;;1.70;;
72974;SDS011;61166;54.228;37.632;2023-04-15T02:07:37;3.60;;;1.45;;
72974;SDS011;61166;54.228;37.632;2023-04-15T02:10:05;4.07;;;1.35;;
72974;SDS011;61166;54.228;37.632;2023-04-15T02:12:32;5.57;;;1.70;;
72974;SDS011;61166;54.228;37.632;2023-04-15T02:15:00;4.47;;;1.75;;
72974;SDS011;61166;54.228;37.632;2023-04-15T02:17:28;3.97;;;1.60;;
72974;SDS011;61166;54.228;37.632;2023-04-15T02:19:56;6.90;;;1.77;;
72974;SDS011;61166;54.228;37.632;2023-04-15T02:22:23;4.95;;;1.45;;
72974;SDS011;61166;54.228;37.632;2023-04-15T02:24:51;3.83;;;1.50;;
72974;SDS011;61166;54.228;37.632;2023-04-15T02:27:19;3.70;;;1.33;;
72974;SDS011;61166;54.228;37.632;2023-04-15T02:29:46;5.20;;;1.88;;
72974;SDS011;61166;54.228;37.632;2023-04-15T02:32:14;6.40;;;1.95;;
72974;SDS011;61166;54.228;37.632;2023-04-15T02:34:42;3.75;;;1.38;;
72974;SDS011;61166;54.228;37.632;2023-04-15T02:37:10;7.97;;;2.10;;
72974;SDS011;61166;54.228;37.632;2023-04-15T02:39:38;4.78;;;1.90;;
72974;SDS011;61166;54.228;37.632;2023-04-15T02:42:06;5.03;;;2.00;;
72974;SDS011;61166;54.228;37.632;2023-04-15T02:44:33;4.65;;;1.98;;
72974;SDS011;61166;54.228;37.632;2023-04-15T02:47:01;5.28;;;2.63;;
72974;SDS011;61166;54.228;37.632;2023-04-15T02:49:29;6.27;;;3.00;;
72974;SDS011;61166;54.228;37.632;2023-04-15T02:51:56;5.93;;;2.65;;
72974;SDS011;61166;54.228;37.632;2023-04-15T02:54:24;3.63;;;1.95;;
72974;SDS011;61166;54.228;37.632;2023-04-15T02:56:52;7.03;;;2.17;;
72974;SDS011;61166;54.228;37.632;2023-04-15T02:59:20;10.70;;;3.15;;
72974;SDS011;61166;54.228;37.632;2023-04-15T03:01:48;7.27;;;2.53;;
72974;SDS011;61166;54.228;37.632;2023-04-15T03:04:15;8.00;;;2.65;;
72974;SDS011;61166;54.228;37.632;2023-04-15T03:06:43;8.02;;;2.70;;
72974;SDS011;61166;54.228;37.632;2023-04-15T03:09:11;7.32;;;2.45;;
72974;SDS011;61166;54.228;37.632;2023-04-15T03:11:39;5.00;;;2.20;;
72974;SDS011;61166;54.228;37.632;2023-04-15T03:14:06;5.37;;;2.80;;
72974;SDS011;61166;54.228;37.632;2023-04-15T03:16:34;4.82;;;1.88;;
72974;SDS011;61166;54.228;37.632;2023-04-15T03:19:01;6.60;;;2.20;;
72974;SDS011;61166;54.228;37.632;2023-04-15T03:21:30;6.78;;;3.03;;
72974;SDS011;61166;54.228;37.632;2023-04-15T03:23:57;5.78;;;2.40;;
72974;SDS011;61166;54.228;37.632;2023-04-15T03:26:29;7.47;;;2.43;;
72974;SDS011;61166;54.228;37.632;2023-04-15T03:28:57;6.20;;;3.13;;
72974;SDS011;61166;54.228;37.632;2023-04-15T03:31:25;6.68;;;3.75;;
72974;SDS011;61166;54.228;37.632;2023-04-15T03:33:52;7.20;;;3.10;;
72974;SDS011;61166;54.228;37.632;2023-04-15T03:36:20;5.97;;;2.75;;
72974;SDS011;61166;54.228;37.632;2023-04-15T03:38:48;6.83;;;2.67;;
72974;SDS011;61166;54.228;37.632;2023-04-15T03:41:15;8.32;;;3.30;;
72974;SDS011;61166;54.228;37.632;2023-04-15T03:43:43;6.15;;;2.72;;
72974;SDS011;61166;54.228;37.632;2023-04-15T03:46:11;5.38;;;2.70;;
72974;SDS011;61166;54.228;37.632;2023-04-15T03:48:38;5.47;;;3.35;;
72974;SDS011;61166;54.228;37.632;2023-04-15T03:51:06;7.53;;;3.47;;
72974;SDS011;61166;54.228;37.632;2023-04-15T03:53:34;4.30;;;2.90;;
72974;SDS011;61166;54.228;37.632;2023-04-15T03:56:01;6.82;;;3.42;;
72974;SDS011;61166;54.228;37.632;2023-04-15T03:58:29;7.78;;;3.40;;
72974;SDS011;61166;54.228;37.632;2023-04-15T04:00:57;7.72;;;3.45;;
72974;SDS011;61166;54.228;37.632;2023-04-15T04:03:24;5.27;;;3.40;;
72974;SDS011;61166;54.228;37.632;2023-04-15T04:05:52;6.60;;;3.40;;
72974;SDS011;61166;54.228;37.632;2023-04-15T04:08:20;4.90;;;2.80;;
72974;SDS011;61166;54.228;37.632;2023-04-15T04:10:48;7.15;;;3.35;;
72974;SDS011;61166;54.228;37.632;2023-04-15T04:13:15;5.32;;;2.50;;
72974;SDS011;61166;54.228;37.632;2023-04-15T04:15:43;5.40;;;2.90;;
72974;SDS011;61166;54.228;37.632;2023-04-15T04:18:11;9.32;;;3.60;;
72974;SDS011;61166;54.228;37.632;2023-04-15T04:20:39;4.80;;;3.33;;
72974;SDS011;61166;54.228;37.632;2023-04-15T04:23:06;4.70;;;3.40;;
72974;SDS011;61166;54.228;37.632;2023-04-15T04:25:34;5.32;;;3.53;;
72974;SDS011;61166;54.228;37.632;2023-04-15T04:28:02;6.97;;;3.10;;
72974;SDS011;61166;54.228;37.632;2023-04-15T04:30:29;4.72;;;2.92;;
72974;SDS011;61166;54.228;37.632;2023-04-15T04:32:57;4.60;;;2.95;;
72974;SDS011;61166;54.228;37.632;2023-04-15T04:35:25;6.68;;;3.38;;
72974;SDS011;61166;54.228;37.632;2023-04-15T04:37:52;3.75;;;2.63;;
72974;SDS011;61166;54.228;37.632;2023-04-15T04:40:20;3.65;;;3.15;;
72974;SDS011;61166;54.228;37.632;2023-04-15T04:42:48;5.53;;;2.97;;
72974;SDS011;61166;54.228;37.632;2023-04-15T04:45:15;5.45;;;3.10;;
72974;SDS011;61166;54.228;37.632;2023-04-15T04:47:43;5.63;;;3.65;;
72974;SDS011;61166;54.228;37.632;2023-04-15T04:50:11;4.35;;;2.97;;
72974;SDS011;61166;54.228;37.632;2023-04-15T04:52:39;4.20;;;3.80;;
72974;SDS011;61166;54.228;37.632;2023-04-15T04:55:06;4.28;;;3.03;;
72974;SDS011;61166;54.228;37.632;2023-04-15T04:57:34;6.18;;;3.42;;
72974;SDS011;61166;54.228;37.632;2023-04-15T05:00:02;4.43;;;3.50;;
72974;SDS011;61166;54.228;37.632;2023-04-15T05:02:29;3.40;;;3.10;;
72974;SDS011;61166;54.228;37.632;2023-04-15T05:04:57;7.50;;;3.30;;
72974;SDS011;61166;54.228;37.632;2023-04-15T05:07:25;3.97;;;2.42;;
72974;SDS011;61166;54.228;37.632;2023-04-15T05:09:53;4.57;;;2.95;;
72974;SDS011;61166;54.228;37.632;2023-04-15T05:12:20;5.63;;;3.10;;
72974;SDS011;61166;54.228;37.632;2023-04-15T05:14:48;6.90;;;3.05;;
72974;SDS011;61166;54.228;37.632;2023-04-15T05:17:16;4.78;;;2.85;;
72974;SDS011;61166;54.228;37.632;2023-04-15T05:19:43;6.00;;;2.85;;
72974;SDS011;61166;54.228;37.632;2023-04-15T05:22:11;4.03;;;1.80;;
72974;SDS011;61166;54.228;37.632;2023-04-15T05:24:39;5.78;;;2.25;;
72974;SDS011;61166;54.228;37.632;2023-04-15T05:27:06;4.65;;;1.95;;
72974;SDS011;61166;54.228;37.632;2023-04-15T05:29:34;4.07;;;2.50;;
72974;SDS011;61166;54.228;37.632;2023-04-15T05:32:02;3.15;;;2.10;;
72974;SDS011;61166;54.228;37.632;2023-04-15T05:34:29;6.90;;;2.67;;
72974;SDS011;61166;54.228;37.632;2023-04-15T05:36:57;4.80;;;2.58;;
72974;SDS011;61166;54.228;37.632;2023-04-15T05:39:25;4.07;;;2.03;;
72974;SDS011;61166;54.228;37.632;2023-04-15T05:41:52;2.90;;;2.10;;
72974;SDS011;61166;54.228;37.632;2023-04-15T05:44:20;4.53;;;2.03;;
72974;SDS011;61166;54.228;37.632;2023-04-15T05:46:48;3.03;;;1.98;;
72974;SDS011;61166;54.228;37.632;2023-04-15T05:49:15;4.43;;;2.40;;
72974;SDS011;61166;54.228;37.632;2023-04-15T05:51:43;8.27;;;2.20;;
72974;SDS011;61166;54.228;37.632;2023-04-15T05:54:11;4.47;;;2.08;;
72974;SDS011;61166;54.228;37.632;2023-04-15T05:56:38;5.85;;;1.80;;
72974;SDS011;61166;54.228;37.632;2023-04-15T05:59:08;4.32;;;2.38;;
72974;SDS011;61166;54.228;37.632;2023-04-15T06:01:36;6.35;;;2.40;;
72974;SDS011;61166;54.228;37.632;2023-04-15T06:04:03;6.85;;;2.20;;
72974;SDS011;61166;54.228;37.632;2023-04-15T06:06:31;4.05;;;2.15;;
72974;SDS011;61166;54.228;37.632;2023-04-15T06:08:59;3.88;;;1.52;;
72974;SDS011;61166;54.228;37.632;2023-04-15T06:11:27;4.07;;;2.28;;
72974;SDS011;61166;54.228;37.632;2023-04-15T06:13:55;4.57;;;1.80;;
72974;SDS011;61166;54.228;37.632;2023-04-15T06:16:22;2.78;;;1.90;;
72974;SDS011;61166;54.228;37.632;2023-04-15T06:18:50;4.88;;;2.42;;
72974;SDS011;61166;54.228;37.632;2023-04-15T06:21:18;4.00;;;2.45;;
72974;SDS011;61166;54.228;37.632;2023-04-15T06:23:46;5.90;;;3.20;;
72974;SDS011;61166;54.228;37.632;2023-04-15T06:26:13;5.18;;;2.63;;
72974;SDS011;61166;54.228;37.632;2023-04-15T06:28:41;5.25;;;2.20;;
72974;SDS011;61166;54.228;37.632;2023-04-15T06:31:08;6.22;;;2.35;;
72974;SDS011;61166;54.228;37.632;2023-04-15T06:33:36;5.65;;;2.53;;
72974;SDS011;61166;54.228;37.632;2023-04-15T06:36:04;3.60;;;1.90;;
72974;SDS011;61166;54.228;37.632;2023-04-15T06:38:31;5.95;;;2.30;;
72974;SDS011;61166;54.228;37.632;2023-04-15T06:40:59;4.20;;;1.75;;
72974;SDS011;61166;54.228;37.632;2023-04-15T06:43:27;3.70;;;2.35;;
72974;SDS011;61166;54.228;37.632;2023-04-15T06:45:55;3.45;;;2.20;;
72974;SDS011;61166;54.228;37.632;2023-04-15T06:48:23;4.60;;;2.30;;
72974;SDS011;61166;54.228;37.632;2023-04-15T06:50:50;6.47;;;2.47;;
72974;SDS011;61166;54.228;37.632;2023-04-15T06:53:18;3.67;;;2.03;;
72974;SDS011;61166;54.228;37.632;2023-04-15T06:55:46;6.35;;;2.65;;
72974;SDS011;61166;54.228;37.632;2023-04-15T06:58:13;3.28;;;2.10;;
72974;SDS011;61166;54.228;37.632;2023-04-15T07:00:41;8.57;;;2.20;;
72974;SDS011;61166;54.228;37.632;2023-04-15T07:03:09;3.30;;;1.70;;
72974;SDS011;61166;54.228;37.632;2023-04-15T07:05:37;3.97;;;2.05;;
72974;SDS011;61166;54.228;37.632;2023-04-15T07:08:04;5.55;;;2.03;;
72974;SDS011;61166;54.228;37.632;2023-04-15T07:10:32;5.60;;;2.10;;
72974;SDS011;61166;54.228;37.632;2023-04-15T07:13:00;4.28;;;2.10;;
72974;SDS011;61166;54.228;37.632;2023-04-15T07:15:28;3.63;;;1.90;;
72974;SDS011;61166;54.228;37.632;2023-04-15T07:17:56;5.05;;;1.75;;
72974;SDS011;61166;54.228;37.632;2023-04-15T07:20:24;4.20;;;2.28;;
72974;SDS011;61166;54.228;37.632;2023-04-15T07:22:51;3.28;;;2.70;;
72974;SDS011;61166;54.228;37.632;2023-04-15T07:25:19;4.22;;;2.60;;
72974;SDS011;61166;54.228;37.632;2023-04-15T07:27:47;4.18;;;2.58;;
72974;SDS011;61166;54.228;37.632;2023-04-15T07:30:15;3.33;;;2.35;;
72974;SDS011;61166;54.228;37.632;2023-04-15T07:32:42;6.88;;;2.83;;
72974;SDS011;61166;54.228;37.632;2023-04-15T07:35:10;5.45;;;2.80;;
72974;SDS011;61166;54.228;37.632;2023-04-15T07:37:38;4.00;;;2.33;;
72974;SDS011;61166;54.228;37.632;2023-04-15T07:40:05;5.47;;;2.45;;
72974;SDS011;61166;54.228;37.632;2023-04-15T07:42:33;7.32;;;2.45;;
72974;SDS011;61166;54.228;37.632;2023-04-15T07:45:01;6.55;;;2.50;;
72974;SDS011;61166;54.228;37.632;2023-04-15T07:47:29;6.20;;;2.90;;
72974;SDS011;61166;54.228;37.632;2023-04-15T07:49:57;6.20;;;2.75;;
72974;SDS011;61166;54.228;37.632;2023-04-15T07:52:25;4.68;;;2.55;;
72974;SDS011;61166;54.228;37.632;2023-04-15T07:54:52;3.80;;;2.72;;
72974;SDS011;61166;54.228;37.632;2023-04-15T07:57:20;3.47;;;2.50;;
72974;SDS011;61166;54.228;37.632;2023-04-15T07:59:48;3.53;;;2.30;;
72974;SDS011;61166;54.228;37.632;2023-04-15T08:02:15;4.22;;;2.40;;
72974;SDS011;61166;54.228;37.632;2023-04-15T08:04:43;5.20;;;3.00;;
72974;SDS011;61166;54.228;37.632;2023-04-15T08:07:11;5.22;;;2.45;;
72974;SDS011;61166;54.228;37.632;2023-04-15T08:09:39;6.38;;;2.58;;
72974;SDS011;61166;54.228;37.632;2023-04-15T08:12:07;7.35;;;2.55;;
72974;SDS011;61166;54.228;37.632;2023-04-15T08:14:34;4.03;;;2.20;;
72974;SDS011;61166;54.228;37.632;2023-04-15T08:17:02;4.25;;;2.17;;
72974;SDS011;61166;54.228;37.632;2023-04-15T08:19:30;4.50;;;2.42;;
72974;SDS011;61166;54.228;37.632;2023-04-15T08:21:57;8.20;;;2.45;;
72974;SDS011;61166;54.228;37.632;2023-04-15T08:24:25;3.58;;;2.00;;
72974;SDS011;61166;54.228;37.632;2023-04-15T08:26:53;5.78;;;2.47;;
72974;SDS011;61166;54.228;37.632;2023-04-15T08:29:21;7.40;;;2.25;;
72974;SDS011;61166;54.228;37.632;2023-04-15T08:31:48;5.32;;;2.28;;
72974;SDS011;61166;54.228;37.632;2023-04-15T08:34:16;4.07;;;2.15;;
72974;SDS011;61166;54.228;37.632;2023-04-15T08:36:44;5.88;;;2.28;;
72974;SDS011;61166;54.228;37.632;2023-04-15T08:39:11;4.40;;;2.30;;
72974;SDS011;61166;54.228;37.632;2023-04-15T08:41:40;3.88;;;1.88;;
72974;SDS011;61166;54.228;37.632;2023-04-15T08:44:12;4.25;;;2.25;;
72974;SDS011;61166;54.228;37.632;2023-04-15T08:46:40;4.03;;;1.65;;
72974;SDS011;61166;54.228;37.632;2023-04-15T08:49:11;5.55;;;2.30;;
72974;SDS011;61166;54.228;37.632;2023-04-15T08:51:39;4.22;;;1.95;;
72974;SDS011;61166;54.228;37.632;2023-04-15T08:54:07;3.35;;;1.52;;
72974;SDS011;61166;54.228;37.632;2023-04-15T08:56:35;4.43;;;2.30;;
72974;SDS011;61166;54.228;37.632;2023-04-15T08:59:03;5.88;;;2.10;;
72974;SDS011;61166;54.228;37.632;2023-04-15T09:01:31;5.78;;;2.45;;
72974;SDS011;61166;54.228;37.632;2023-04-15T09:03:59;5.50;;;2.35;;
72974;SDS011;61166;54.228;37.632;2023-04-15T09:06:27;8.70;;;2.38;;
72974;SDS011;61166;54.228;37.632;2023-04-15T09:08:55;8.55;;;2.90;;
72974;SDS011;61166;54.228;37.632;2023-04-15T09:11:23;7.03;;;3.10;;
72974;SDS011;61166;54.228;37.632;2023-04-15T09:13:50;5.57;;;2.13;;
72974;SDS011;61166;54.228;37.632;2023-04-15T09:16:18;12.75;;;2.83;;
72974;SDS011;61166;54.228;37.632;2023-04-15T09:18:46;6.50;;;2.55;;
72974;SDS011;61166;54.228;37.632;2023-04-15T09:21:15;10.18;;;2.67;;
72974;SDS011;61166;54.228;37.632;2023-04-15T09:23:56;4.93;;;2.40;;
72974;SDS011;61166;54.228;37.632;2023-04-15T09:26:31;7.47;;;3.22;;
72974;SDS011;61166;54.228;37.632;2023-04-15T09:29:05;4.22;;;1.98;;
72974;SDS011;61166;54.228;37.632;2023-04-15T09:31:34;5.00;;;2.35;;
72974;SDS011;61166;54.228;37.632;2023-04-15T09:34:01;5.25;;;1.88;;
72974;SDS011;61166;54.228;37.632;2023-04-15T09:36:37;8.20;;;2.67;;
72974;SDS011;61166;54.228;37.632;2023-04-15T09:39:05;6.13;;;2.65;;
72974;SDS011;61166;54.228;37.632;2023-04-15T09:41:32;7.20;;;2.83;;
72974;SDS011;61166;54.228;37.632;2023-04-15T09:44:00;4.90;;;2.47;;
72974;SDS011;61166;54.228;37.632;2023-04-15T09:46:41;5.10;;;2.15;;
72974;SDS011;61166;54.228;37.632;2023-04-15T09:49:09;5.32;;;2.00;;
72974;SDS011;61166;54.228;37.632;2023-04-15T09:51:37;4.15;;;2.35;;
72974;SDS011;61166;54.228;37.632;2023-04-15T09:54:05;4.82;;;2.47;;
72974;SDS011;61166;54.228;37.632;2023-04-15T09:56:36;6.30;;;2.75;;
72974;SDS011;61166;54.228;37.632;2023-04-15T09:59:04;5.32;;;1.92;;
72974;SDS011;61166;54.228;37.632;2023-04-15T10:01:32;4.35;;;2.03;;
72974;SDS011;61166;54.228;37.632;2023-04-15T10:04:01;5.93;;;2.80;;
72974;SDS011;61166;54.228;37.632;2023-04-15T10:06:30;7.78;;;2.90;;
72974;SDS011;61166;54.228;37.632;2023-04-15T10:08:57;6.60;;;1.85;;
72974;SDS011;61166;54.228;37.632;2023-04-15T10:11:28;4.95;;;2.60;;
72974;SDS011;61166;54.228;37.632;2023-04-15T10:13:58;5.07;;;2.60;;
72974;SDS011;61166;54.228;37.632;2023-04-15T10:16:27;5.05;;;2.72;;
72974;SDS011;61166;54.228;37.632;2023-04-15T10:18:55;9.02;;;2.70;;
72974;SDS011;61166;54.228;37.632;2023-04-15T10:21:24;9.43;;;2.95;;
72974;SDS011;61166;54.228;37.632;2023-04-15T10:23:52;7.15;;;2.53;;
72974;SDS011;61166;54.228;37.632;2023-04-15T10:26:19;5.95;;;2.83;;
72974;SDS011;61166;54.228;37.632;2023-04-15T10:28:47;7.38;;;2.90;;
72974;SDS011;61166;54.228;37.632;2023-04-15T10:31:15;7.28;;;3.67;;
72974;SDS011;61166;54.228;37.632;2023-04-15T10:33:44;6.28;;;3.13;;
72974;SDS011;61166;54.228;37.632;2023-04-15T10:36:12;6.13;;;3.55;;
72974;SDS011;61166;54.228;37.632;2023-04-15T10:38:41;6.97;;;3.00;;
72974;SDS011;61166;54.228;37.632;2023-04-15T10:43:48;6.53;;;2.72;;
72974;SDS011;61166;54.228;37.632;2023-04-15T10:46:20;9.07;;;2.75;;
72974;SDS011;61166;54.228;37.632;2023-04-15T10:48:49;6.10;;;2.85;;
72974;SDS011;61166;54.228;37.632;2023-04-15T10:51:28;6.45;;;2.95;;
72974;SDS011;61166;54.228;37.632;2023-04-15T10:54:00;7.00;;;3.15;;
72974;SDS011;61166;54.228;37.632;2023-04-15T10:56:28;5.95;;;3.17;;
72974;SDS011;61166;54.228;37.632;2023-04-15T10:58:57;5.38;;;2.88;;
72974;SDS011;61166;54.228;37.632;2023-04-15T11:04:11;6.45;;;3.08;;
72974;SDS011;61166;54.228;37.632;2023-04-15T11:06:43;6.75;;;2.90;;
72974;SDS011;61166;54.228;37.632;2023-04-15T11:09:30;6.85;;;2.60;;
72974;SDS011;61166;54.228;37.632;2023-04-15T11:12:04;5.65;;;2.78;;
72974;SDS011;61166;54.228;37.632;2023-04-15T11:14:32;5.90;;;2.75;;
72974;SDS011;61166;54.228;37.632;2023-04-15T11:17:00;7.45;;;2.83;;
72974;SDS011;61166;54.228;37.632;2023-04-15T11:19:34;6.18;;;3.38;;
72974;SDS011;61166;54.228;37.632;2023-04-15T11:22:06;6.45;;;3.45;;
72974;SDS011;61166;54.228;37.632;2023-04-15T11:24:34;7.30;;;3.38;;
72974;SDS011;61166;54.228;37.632;2023-04-15T11:27:01;9.85;;;2.88;;
72974;SDS011;61166;54.228;37.632;2023-04-15T11:29:30;6.78;;;3.47;;
72974;SDS011;61166;54.228;37.632;2023-04-15T11:32:04;10.95;;;4.53;;
72974;SDS011;61166;54.228;37.632;2023-04-15T11:34:32;18.67;;;5.35;;
72974;SDS011;61166;54.228;37.632;2023-04-15T11:37:03;8.35;;;3.53;;
72974;SDS011;61166;54.228;37.632;2023-04-15T11:39:31;8.80;;;4.45;;
72974;SDS011;61166;54.228;37.632;2023-04-15T11:41:58;8.32;;;4.35;;
72974;SDS011;61166;54.228;37.632;2023-04-15T11:44:26;8.80;;;4.28;;
72974;SDS011;61166;54.228;37.632;2023-04-15T11:46:54;8.65;;;4.18;;
72974;SDS011;61166;54.228;37.632;2023-04-15T11:49:25;10.75;;;5.03;;
72974;SDS011;61166;54.228;37.632;2023-04-15T11:51:52;7.10;;;4.25;;
72974;SDS011;61166;54.228;37.632;2023-04-15T11:54:18;12.15;;;4.90;;
72974;SDS011;61166;54.228;37.632;2023-04-15T11:56:49;7.38;;;2.80;;
72974;SDS011;61166;54.228;37.632;2023-04-15T11:59:15;9.75;;;3.88;;
72974;SDS011;61166;54.228;37.632;2023-04-15T12:01:41;11.50;;;4.05;;
72974;SDS011;61166;54.228;37.632;2023-04-15T12:06:37;6.75;;;3.00;;
72974;SDS011;61166;54.228;37.632;2023-04-15T12:11:46;8.75;;;4.20;;
72974;SDS011;61166;54.228;37.632;2023-04-15T12:14:28;8.88;;;3.53;;
72974;SDS011;61166;54.228;37.632;2023-04-15T12:17:04;11.02;;;4.93;;
72974;SDS011;61166;54.228;37.632;2023-04-15T12:19:40;11.10;;;4.63;;
72974;SDS011;61166;54.228;37.632;2023-04-15T12:22:11;17.42;;;4.75;;
72974;SDS011;61166;54.228;37.632;2023-04-15T12:24:38;7.18;;;3.25;;
72974;SDS011;61166;54.228;37.632;2023-04-15T12:27:05;10.18;;;3.90;;
72974;SDS011;61166;54.228;37.632;2023-04-15T12:29:33;10.52;;;4.22;;
72974;SDS011;61166;54.228;37.632;2023-04-15T12:32:10;9.43;;;4.13;;
72974;SDS011;61166;54.228;37.632;2023-04-15T12:34:49;7.43;;;4.72;;
72974;SDS011;61166;54.228;37.632;2023-04-15T12:37:15;11.25;;;3.72;;
72974;SDS011;61166;54.228;37.632;2023-04-15T12:39:43;7.22;;;3.22;;
72974;SDS011;61166;54.228;37.632;2023-04-15T12:42:09;9.90;;;3.17;;
72974;SDS011;61166;54.228;37.632;2023-04-15T12:44:36;7.53;;;3.53;;
72974;SDS011;61166;54.228;37.632;2023-04-15T12:47:03;9.57;;;3.15;;
72974;SDS011;61166;54.228;37.632;2023-04-15T12:49:30;6.40;;;2.55;;
72974;SDS011;61166;54.228;37.632;2023-04-15T12:51:57;8.07;;;2.85;;
72974;SDS011;61166;54.228;37.632;2023-04-15T12:54:24;8.18;;;3.90;;
72974;SDS011;61166;54.228;37.632;2023-04-15T12:56:50;12.00;;;4.05;;
72974;SDS011;61166;54.228;37.632;2023-04-15T12:59:17;6.32;;;3.53;;
72974;SDS011;61166;54.228;37.632;2023-04-15T13:01:44;6.93;;;2.67;;
72974;SDS011;61166;54.228;37.632;2023-04-15T13:04:10;8.35;;;3.05;;
72974;SDS011;61166;54.228;37.632;2023-04-15T13:06:37;8.10;;;4.13;;
72974;SDS011;61166;54.228;37.632;2023-04-15T13:09:03;6.80;;;2.67;;
72974;SDS011;61166;54.228;37.632;2023-04-15T13:11:31;8.20;;;4.30;;
72974;SDS011;61166;54.228;37.632;2023-04-15T13:14:02;7.32;;;2.72;;
72974;SDS011;61166;54.228;37.632;2023-04-15T13:16:29;7.50;;;3.10;;
72974;SDS011;61166;54.228;37.632;2023-04-15T13:18:56;10.32;;;3.97;;
72974;SDS011;61166;54.228;37.632;2023-04-15T13:21:23;9.75;;;3.53;;
72974;SDS011;61166;54.228;37.632;2023-04-15T13:23:49;8.27;;;3.63;;
72974;SDS011;61166;54.228;37.632;2023-04-15T13:26:16;7.97;;;4.13;;
72974;SDS011;61166;54.228;37.632;2023-04-15T13:28:42;7.93;;;3.30;;
72974;SDS011;61166;54.228;37.632;2023-04-15T13:31:09;14.55;;;3.45;;
72974;SDS011;61166;54.228;37.632;2023-04-15T13:33:35;10.45;;;2.83;;
72974;SDS011;61166;54.228;37.632;2023-04-15T13:36:02;5.78;;;3.30;;
72974;SDS011;61166;54.228;37.632;2023-04-15T13:38:28;12.35;;;3.13;;
72974;SDS011;61166;54.228;37.632;2023-04-15T13:40:55;7.53;;;3.60;;
72974;SDS011;61166;54.228;37.632;2023-04-15T13:43:21;8.65;;;2.95;;
72974;SDS011;61166;54.228;37.632;2023-04-15T13:45:47;8.45;;;3.33;;
72974;SDS011;61166;54.228;37.632;2023-04-15T13:48:14;8.77;;;3.80;;
72974;SDS011;61166;54.228;37.632;2023-04-15T13:50:41;8.10;;;4.05;;
72974;SDS011;61166;54.228;37.632;2023-04-15T13:53:07;10.80;;;4.35;;
72974;SDS011;61166;54.228;37.632;2023-04-15T13:55:34;9.07;;;4.10;;
72974;SDS011;61166;54.228;37.632;2023-04-15T13:58:00;13.48;;;3.63;;
72974;SDS011;61166;54.228;37.632;2023-04-15T14:00:27;7.63;;;4.03;;
72974;SDS011;61166;54.228;37.632;2023-04-15T14:02:53;6.95;;;3.72;;
72974;SDS011;61166;54.228;37.632;2023-04-15T14:05:20;7.93;;;3.40;;
72974;SDS011;61166;54.228;37.632;2023-04-15T14:07:46;11.40;;;4.90;;
72974;SDS011;61166;54.228;37.632;2023-04-15T14:10:13;8.50;;;4.00;;
72974;SDS011;61166;54.228;37.632;2023-04-15T14:12:39;12.32;;;4.38;;
72974;SDS011;61166;54.228;37.632;2023-04-15T14:15:06;9.95;;;4.63;;
72974;SDS011;61166;54.228;37.632;2023-04-15T14:17:33;10.63;;;6.00;;
72974;SDS011;61166;54.228;37.632;2023-04-15T14:19:59;10.98;;;5.15;;
72974;SDS011;61166;54.228;37.632;2023-04-15T14:22:25;11.75;;;6.65;;
72974;SDS011;61166;54.228;37.632;2023-04-15T14:24:52;15.82;;;6.95;;
72974;SDS011;61166;54.228;37.632;2023-04-15T14:27:18;13.57;;;8.60;;
72974;SDS011;61166;54.228;37.632;2023-04-15T14:29:45;11.60;;;7.00;;
72974;SDS011;61166;54.228;37.632;2023-04-15T14:32:11;19.02;;;8.05;;
72974;SDS011;61166;54.228;37.632;2023-04-15T14:34:38;16.30;;;8.40;;
72974;SDS011;61166;54.228;37.632;2023-04-15T14:37:05;21.65;;;8.45;;
72974;SDS011;61166;54.228;37.632;2023-04-15T14:39:31;12.80;;;6.28;;
72974;SDS011;61166;54.228;37.632;2023-04-15T14:41:58;11.95;;;5.90;;
72974;SDS011;61166;54.228;37.632;2023-04-15T14:44:25;9.40;;;4.50;;
72974;SDS011;61166;54.228;37.632;2023-04-15T14:46:51;8.95;;;4.68;;
72974;SDS011;61166;54.228;37.632;2023-04-15T14:49:18;10.05;;;4.50;;